Current Conditions
Mostly Scattered
Clouds



Pressure
30.02 (inHG) - 1016.62 (mb)
Visibility

10.0 (mimiles) - 16.1 (km)
   Temperature
79  °F
26°C
72  °F
Dewpoint
79  %
 Humidity
   Wind Speed
10  mph
9  kts
16  km/h
4.5  m/s
   Wind Direction
 130°
South East
   Airport Data
KDWH
Location David Wayne Hooks Memorial 4.4 mi (7.08 km)
Metar :KDWH 240553Z AUTO 13009KT 10SM SCT037 26/22 A3002 RMK AO2 SLP164 T02560217 10272 20256 403110256 50004
Fri 24th May 00:53 am
   Raw Metar Info
Raw METAR is the most common format in the world for the transmission of observational weather data. It is highly standardized through the International Civil Aviation Organization (ICAO), which allows it to be understood throughout most of the world.
   API Info
Data Provided by
https://www.checkwx.com/weather/KDWH
   © Info
CSS/SVG/PHP scripts were developed by weather34.com for use in the weather34 template © 2015-2019

Guide Info provided by Metar-Wikipedia